Aquadonna — A8TW9 — position and weather

sailwx.info

Track history (hours):
 
Tides and Currents Weather Stations Pressure Air Temp Water Temp Dewpoint Dewpoint Depression Visibility Wind Speed Wind Dir Waves Ship Positions

Aquadonna

Last reported at 2014-Sep-27 22:08 UTC. Time now 2014-Oct-25 01:29 UTC.
Position N 01°16' E 103°23'.
Warning: this ship's position is 27 days out of date.

Length 280 m; draft 8.3 m.

Type: Cargo ship. MMSI: 636014449.

Date/timePositionNaut miles runAvg speedWind from/ knotsBaromVisibWave heightAir tempDewpointWater temp
2014-Sep-27 22:08N 01°16' E 103°23'813.5
2014-Sep-27 21:34N 01°13' E 103°30'1212.4
2014-Sep-27 20:34N 01°09' E 103°42'1111.1
2014-Sep-27 19:34N 01°13' E 103°53'5 5.4
2014-Sep-27 18:34N 01°16' E 103°57'0 0.4
2014-Sep-27 17:32N 01°16' E 103°56'0 0.0
2014-Sep-27 16:32N 01°16' E 103°56'0 0.0
2014-Sep-27 15:29N 01°16' E 103°56'0 0.0
2014-Sep-27 14:32N 01°16' E 103°56'0 0.1
2014-Sep-27 13:23N 01°16' E 103°56'0 0.3
2014-Sep-27 12:32N 01°16' E 103°56'0 0.0
2014-Sep-27 11:32N 01°16' E 103°56'0 0.1
2014-Sep-27 10:32N 01°16' E 103°57'0 0.0
2014-Sep-27 09:32N 01°16' E 103°57'0 0.0
2014-Sep-27 08:31N 01°16' E 103°57'0 0.1
2014-Sep-27 07:31N 01°16' E 103°56'0 0.2
2014-Sep-27 06:29N 01°16' E 103°56'0 0.1
2014-Sep-27 05:32N 01°16' E 103°56'0 0.1
2014-Sep-27 04:29N 01°16' E 103°56'0 0.1
2014-Sep-27 03:23N 01°16' E 103°56'0 0.0
2014-Sep-27 02:34N 01°16' E 103°56'0 0.0
2014-Sep-27 01:33N 01°16' E 103°56'0 0.0
2014-Sep-27 00:33N 01°16' E 103°56'0 0.2
2014-Sep-26 23:32N 01°16' E 103°56'3 2.7
2014-Sep-26 22:33N 01°16' E 103°59'3 2.8
2014-Sep-26 21:33N 01°16' E 104°02'  
Track history (hours):
 
Tides and Currents Weather Stations Pressure Air Temp Water Temp Dewpoint Dewpoint Depression Visibility Wind Speed Wind Dir Waves Ship Positions

Aquadonna

Last reported at 2014-Sep-27 22:08 UTC. Time now 2014-Oct-25 01:29 UTC.
Position N 01°16' E 103°23'.
Warning: this ship's position is 27 days out of date.

Length 280 m; draft 8.3 m.

Type: Cargo ship. MMSI: 636014449.

Date/timePositionNaut miles runAvg speedWind from/ knotsBaromVisibWave heightAir tempDewpointWater temp
2014-Sep-27 22:08N 01°16' E 103°23'813.5
2014-Sep-27 21:34N 01°13' E 103°30'1212.4
2014-Sep-27 20:34N 01°09' E 103°42'1111.1
2014-Sep-27 19:34N 01°13' E 103°53'5 5.4
2014-Sep-27 18:34N 01°16' E 103°57'0 0.4
2014-Sep-27 17:32N 01°16' E 103°56'0 0.0
2014-Sep-27 16:32N 01°16' E 103°56'0 0.0
2014-Sep-27 15:29N 01°16' E 103°56'0 0.0
2014-Sep-27 14:32N 01°16' E 103°56'0 0.1
2014-Sep-27 13:23N 01°16' E 103°56'0 0.3
2014-Sep-27 12:32N 01°16' E 103°56'0 0.0
2014-Sep-27 11:32N 01°16' E 103°56'0 0.1
2014-Sep-27 10:32N 01°16' E 103°57'0 0.0
2014-Sep-27 09:32N 01°16' E 103°57'0 0.0
2014-Sep-27 08:31N 01°16' E 103°57'0 0.1
2014-Sep-27 07:31N 01°16' E 103°56'0 0.2
2014-Sep-27 06:29N 01°16' E 103°56'0 0.1
2014-Sep-27 05:32N 01°16' E 103°56'0 0.1
2014-Sep-27 04:29N 01°16' E 103°56'0 0.1
2014-Sep-27 03:23N 01°16' E 103°56'0 0.0
2014-Sep-27 02:34N 01°16' E 103°56'0 0.0
2014-Sep-27 01:33N 01°16' E 103°56'0 0.0
2014-Sep-27 00:33N 01°16' E 103°56'0 0.2
2014-Sep-26 23:32N 01°16' E 103°56'3 2.7
2014-Sep-26 22:33N 01°16' E 103°59'3 2.8
2014-Sep-26 21:33N 01°16' E 104°02'  

Dump ship's entire track history